sensor_id;sensor_type;location;lat;lon;timestamp;P1;durP1;ratioP1;P2;durP2;ratioP2
3297;SDS011;1661;53.572;10.174;2022-08-19T00:01:17;28.80;;;23.50;;
3297;SDS011;1661;53.572;10.174;2022-08-19T00:03:44;29.33;;;22.93;;
3297;SDS011;1661;53.572;10.174;2022-08-19T00:06:11;29.20;;;24.00;;
3297;SDS011;1661;53.572;10.174;2022-08-19T00:08:39;27.83;;;23.73;;
3297;SDS011;1661;53.572;10.174;2022-08-19T00:11:06;30.60;;;23.53;;
3297;SDS011;1661;53.572;10.174;2022-08-19T00:13:33;18.20;;;16.40;;
3297;SDS011;1661;53.572;10.174;2022-08-19T00:16:01;30.53;;;25.00;;
3297;SDS011;1661;53.572;10.174;2022-08-19T00:18:28;33.07;;;27.07;;
3297;SDS011;1661;53.572;10.174;2022-08-19T00:20:56;28.53;;;25.50;;
3297;SDS011;1661;53.572;10.174;2022-08-19T00:23:24;18.37;;;16.47;;
3297;SDS011;1661;53.572;10.174;2022-08-19T00:25:52;29.30;;;24.17;;
3297;SDS011;1661;53.572;10.174;2022-08-19T00:28:19;24.20;;;20.77;;
3297;SDS011;1661;53.572;10.174;2022-08-19T00:30:46;22.10;;;17.93;;
3297;SDS011;1661;53.572;10.174;2022-08-19T00:33:13;22.10;;;19.67;;
3297;SDS011;1661;53.572;10.174;2022-08-19T00:35:41;34.40;;;24.10;;
3297;SDS011;1661;53.572;10.174;2022-08-19T00:38:08;25.60;;;20.13;;
3297;SDS011;1661;53.572;10.174;2022-08-19T00:40:34;37.80;;;28.60;;
3297;SDS011;1661;53.572;10.174;2022-08-19T00:43:03;32.87;;;24.20;;
3297;SDS011;1661;53.572;10.174;2022-08-19T00:45:34;30.10;;;23.53;;
3297;SDS011;1661;53.572;10.174;2022-08-19T00:48:01;32.30;;;22.70;;
3297;SDS011;1661;53.572;10.174;2022-08-19T00:50:29;28.60;;;20.93;;
3297;SDS011;1661;53.572;10.174;2022-08-19T00:52:57;26.70;;;17.90;;
3297;SDS011;1661;53.572;10.174;2022-08-19T00:55:25;36.50;;;27.50;;
3297;SDS011;1661;53.572;10.174;2022-08-19T00:57:55;28.10;;;22.83;;
3297;SDS011;1661;53.572;10.174;2022-08-19T01:00:25;45.77;;;27.50;;
3297;SDS011;1661;53.572;10.174;2022-08-19T01:02:54;48.37;;;33.00;;
3297;SDS011;1661;53.572;10.174;2022-08-19T01:05:22;33.53;;;26.03;;
3297;SDS011;1661;53.572;10.174;2022-08-19T01:07:52;29.90;;;23.90;;
3297;SDS011;1661;53.572;10.174;2022-08-19T01:10:21;28.67;;;20.87;;
3297;SDS011;1661;53.572;10.174;2022-08-19T01:12:51;36.13;;;25.87;;
3297;SDS011;1661;53.572;10.174;2022-08-19T01:15:22;38.10;;;28.50;;
3297;SDS011;1661;53.572;10.174;2022-08-19T01:17:53;39.03;;;26.70;;
3297;SDS011;1661;53.572;10.174;2022-08-19T01:20:22;30.97;;;20.13;;
3297;SDS011;1661;53.572;10.174;2022-08-19T01:22:51;38.87;;;24.10;;
3297;SDS011;1661;53.572;10.174;2022-08-19T01:25:21;42.80;;;28.03;;
3297;SDS011;1661;53.572;10.174;2022-08-19T01:27:51;32.83;;;21.90;;
3297;SDS011;1661;53.572;10.174;2022-08-19T01:30:21;36.90;;;28.03;;
3297;SDS011;1661;53.572;10.174;2022-08-19T01:32:50;36.27;;;25.90;;
3297;SDS011;1661;53.572;10.174;2022-08-19T01:35:18;30.60;;;25.43;;
3297;SDS011;1661;53.572;10.174;2022-08-19T01:37:46;38.83;;;28.50;;
3297;SDS011;1661;53.572;10.174;2022-08-19T01:40:16;43.10;;;29.90;;
3297;SDS011;1661;53.572;10.174;2022-08-19T01:42:45;27.70;;;20.83;;
3297;SDS011;1661;53.572;10.174;2022-08-19T01:45:12;34.50;;;25.93;;
3297;SDS011;1661;53.572;10.174;2022-08-19T01:47:39;32.23;;;22.60;;
3297;SDS011;1661;53.572;10.174;2022-08-19T01:50:07;30.83;;;20.27;;
3297;SDS011;1661;53.572;10.174;2022-08-19T01:52:35;25.27;;;20.70;;
3297;SDS011;1661;53.572;10.174;2022-08-19T01:55:04;23.10;;;20.60;;
3297;SDS011;1661;53.572;10.174;2022-08-19T01:57:34;36.90;;;26.50;;
3297;SDS011;1661;53.572;10.174;2022-08-19T02:00:01;33.00;;;23.57;;
3297;SDS011;1661;53.572;10.174;2022-08-19T02:02:30;30.70;;;25.10;;
3297;SDS011;1661;53.572;10.174;2022-08-19T02:04:57;24.63;;;22.03;;
3297;SDS011;1661;53.572;10.174;2022-08-19T02:07:24;29.40;;;22.53;;
3297;SDS011;1661;53.572;10.174;2022-08-19T02:09:53;31.30;;;23.17;;
3297;SDS011;1661;53.572;10.174;2022-08-19T02:12:20;38.67;;;27.70;;
3297;SDS011;1661;53.572;10.174;2022-08-19T02:14:48;25.00;;;22.17;;
3297;SDS011;1661;53.572;10.174;2022-08-19T02:17:15;31.00;;;26.07;;
3297;SDS011;1661;53.572;10.174;2022-08-19T02:19:43;39.07;;;28.90;;
3297;SDS011;1661;53.572;10.174;2022-08-19T02:22:10;32.60;;;25.77;;
3297;SDS011;1661;53.572;10.174;2022-08-19T02:24:36;25.80;;;20.43;;
3297;SDS011;1661;53.572;10.174;2022-08-19T02:27:03;32.67;;;24.03;;
3297;SDS011;1661;53.572;10.174;2022-08-19T02:29:31;32.90;;;23.00;;
3297;SDS011;1661;53.572;10.174;2022-08-19T02:31:59;30.97;;;23.40;;
3297;SDS011;1661;53.572;10.174;2022-08-19T02:34:26;45.60;;;28.30;;
3297;SDS011;1661;53.572;10.174;2022-08-19T02:36:52;35.10;;;26.63;;
3297;SDS011;1661;53.572;10.174;2022-08-19T02:39:19;48.63;;;29.90;;
3297;SDS011;1661;53.572;10.174;2022-08-19T02:41:45;27.70;;;22.77;;
3297;SDS011;1661;53.572;10.174;2022-08-19T02:44:12;36.20;;;25.43;;
3297;SDS011;1661;53.572;10.174;2022-08-19T02:46:38;44.07;;;26.80;;
3297;SDS011;1661;53.572;10.174;2022-08-19T02:49:07;38.87;;;26.97;;
3297;SDS011;1661;53.572;10.174;2022-08-19T02:51:34;45.00;;;32.90;;
3297;SDS011;1661;53.572;10.174;2022-08-19T02:54:04;41.47;;;30.10;;
3297;SDS011;1661;53.572;10.174;2022-08-19T02:56:33;34.77;;;25.63;;
3297;SDS011;1661;53.572;10.174;2022-08-19T02:59:01;36.47;;;27.63;;
3297;SDS011;1661;53.572;10.174;2022-08-19T03:01:35;30.07;;;22.27;;
3297;SDS011;1661;53.572;10.174;2022-08-19T03:04:04;28.57;;;22.00;;
3297;SDS011;1661;53.572;10.174;2022-08-19T03:06:35;32.13;;;22.23;;
3297;SDS011;1661;53.572;10.174;2022-08-19T03:09:04;34.67;;;27.13;;
3297;SDS011;1661;53.572;10.174;2022-08-19T03:11:31;36.40;;;22.43;;
3297;SDS011;1661;53.572;10.174;2022-08-19T03:13:59;37.67;;;27.30;;
3297;SDS011;1661;53.572;10.174;2022-08-19T03:16:27;46.00;;;27.93;;
3297;SDS011;1661;53.572;10.174;2022-08-19T03:18:56;46.87;;;25.80;;
3297;SDS011;1661;53.572;10.174;2022-08-19T03:21:27;62.90;;;32.50;;
3297;SDS011;1661;53.572;10.174;2022-08-19T03:23:56;50.13;;;32.67;;
3297;SDS011;1661;53.572;10.174;2022-08-19T03:26:24;43.87;;;26.60;;
3297;SDS011;1661;53.572;10.174;2022-08-19T03:28:51;34.53;;;25.13;;
3297;SDS011;1661;53.572;10.174;2022-08-19T03:31:19;50.60;;;30.37;;
3297;SDS011;1661;53.572;10.174;2022-08-19T03:33:47;57.60;;;38.10;;
3297;SDS011;1661;53.572;10.174;2022-08-19T03:36:15;50.97;;;34.47;;
3297;SDS011;1661;53.572;10.174;2022-08-19T03:38:45;52.50;;;33.00;;
3297;SDS011;1661;53.572;10.174;2022-08-19T03:41:15;53.50;;;33.10;;
3297;SDS011;1661;53.572;10.174;2022-08-19T03:43:43;49.73;;;33.03;;
3297;SDS011;1661;53.572;10.174;2022-08-19T03:46:12;42.33;;;27.23;;
3297;SDS011;1661;53.572;10.174;2022-08-19T03:48:41;50.87;;;30.30;;
3297;SDS011;1661;53.572;10.174;2022-08-19T03:51:15;42.57;;;27.80;;
3297;SDS011;1661;53.572;10.174;2022-08-19T03:53:42;63.37;;;35.70;;
3297;SDS011;1661;53.572;10.174;2022-08-19T03:56:10;64.90;;;36.87;;
3297;SDS011;1661;53.572;10.174;2022-08-19T03:58:38;62.23;;;36.60;;
3297;SDS011;1661;53.572;10.174;2022-08-19T04:01:06;59.97;;;35.20;;
3297;SDS011;1661;53.572;10.174;2022-08-19T04:03:34;60.37;;;34.67;;
3297;SDS011;1661;53.572;10.174;2022-08-19T04:06:08;51.37;;;31.37;;
3297;SDS011;1661;53.572;10.174;2022-08-19T04:08:37;70.43;;;38.20;;
3297;SDS011;1661;53.572;10.174;2022-08-19T04:11:07;50.93;;;31.20;;
3297;SDS011;1661;53.572;10.174;2022-08-19T04:13:35;34.40;;;26.00;;
3297;SDS011;1661;53.572;10.174;2022-08-19T04:16:02;39.50;;;24.37;;
3297;SDS011;1661;53.572;10.174;2022-08-19T04:18:29;31.17;;;23.17;;
3297;SDS011;1661;53.572;10.174;2022-08-19T04:20:56;51.77;;;33.67;;
3297;SDS011;1661;53.572;10.174;2022-08-19T04:23:23;50.33;;;32.17;;
3297;SDS011;1661;53.572;10.174;2022-08-19T04:25:50;40.17;;;29.73;;
3297;SDS011;1661;53.572;10.174;2022-08-19T04:28:18;55.03;;;34.07;;
3297;SDS011;1661;53.572;10.174;2022-08-19T04:30:54;43.50;;;30.50;;
3297;SDS011;1661;53.572;10.174;2022-08-19T04:33:22;50.80;;;30.23;;
3297;SDS011;1661;53.572;10.174;2022-08-19T04:35:51;38.97;;;28.30;;
3297;SDS011;1661;53.572;10.174;2022-08-19T04:38:19;52.00;;;31.87;;
3297;SDS011;1661;53.572;10.174;2022-08-19T04:40:49;58.13;;;33.37;;
3297;SDS011;1661;53.572;10.174;2022-08-19T04:43:37;37.23;;;27.43;;
3297;SDS011;1661;53.572;10.174;2022-08-19T04:46:04;45.13;;;30.87;;
3297;SDS011;1661;53.572;10.174;2022-08-19T04:48:33;51.00;;;31.73;;
3297;SDS011;1661;53.572;10.174;2022-08-19T04:51:00;42.60;;;24.60;;
3297;SDS011;1661;53.572;10.174;2022-08-19T04:53:28;34.70;;;24.87;;
3297;SDS011;1661;53.572;10.174;2022-08-19T04:55:57;39.07;;;28.53;;
3297;SDS011;1661;53.572;10.174;2022-08-19T04:58:25;42.30;;;27.53;;
3297;SDS011;1661;53.572;10.174;2022-08-19T05:00:54;42.77;;;26.23;;
3297;SDS011;1661;53.572;10.174;2022-08-19T05:03:21;51.77;;;30.60;;
3297;SDS011;1661;53.572;10.174;2022-08-19T05:05:48;32.60;;;24.07;;
3297;SDS011;1661;53.572;10.174;2022-08-19T05:08:15;35.23;;;22.60;;
3297;SDS011;1661;53.572;10.174;2022-08-19T05:10:44;54.27;;;33.53;;
3297;SDS011;1661;53.572;10.174;2022-08-19T05:13:13;39.57;;;24.60;;
3297;SDS011;1661;53.572;10.174;2022-08-19T05:15:41;44.03;;;29.97;;
3297;SDS011;1661;53.572;10.174;2022-08-19T05:18:10;52.87;;;30.27;;
3297;SDS011;1661;53.572;10.174;2022-08-19T05:20:54;58.27;;;34.80;;
3297;SDS011;1661;53.572;10.174;2022-08-19T05:23:43;50.70;;;32.40;;
3297;SDS011;1661;53.572;10.174;2022-08-19T05:26:10;53.87;;;34.20;;
3297;SDS011;1661;53.572;10.174;2022-08-19T05:28:37;54.37;;;31.30;;
3297;SDS011;1661;53.572;10.174;2022-08-19T05:31:04;57.33;;;36.27;;
3297;SDS011;1661;53.572;10.174;2022-08-19T05:33:32;43.73;;;30.57;;
3297;SDS011;1661;53.572;10.174;2022-08-19T05:35:59;45.20;;;28.00;;
3297;SDS011;1661;53.572;10.174;2022-08-19T05:38:27;43.20;;;26.23;;
3297;SDS011;1661;53.572;10.174;2022-08-19T05:40:55;44.70;;;29.20;;
3297;SDS011;1661;53.572;10.174;2022-08-19T05:43:21;67.33;;;38.20;;
3297;SDS011;1661;53.572;10.174;2022-08-19T05:45:48;58.60;;;35.67;;
3297;SDS011;1661;53.572;10.174;2022-08-19T05:48:15;44.43;;;29.30;;
3297;SDS011;1661;53.572;10.174;2022-08-19T05:50:46;55.83;;;34.00;;
3297;SDS011;1661;53.572;10.174;2022-08-19T05:53:15;61.43;;;36.93;;
3297;SDS011;1661;53.572;10.174;2022-08-19T05:55:42;64.27;;;38.63;;
3297;SDS011;1661;53.572;10.174;2022-08-19T05:58:08;49.07;;;31.00;;
3297;SDS011;1661;53.572;10.174;2022-08-19T06:00:36;64.53;;;36.00;;
3297;SDS011;1661;53.572;10.174;2022-08-19T06:03:03;56.07;;;34.40;;
3297;SDS011;1661;53.572;10.174;2022-08-19T06:05:30;55.20;;;31.17;;
3297;SDS011;1661;53.572;10.174;2022-08-19T06:07:59;64.57;;;35.63;;
3297;SDS011;1661;53.572;10.174;2022-08-19T06:10:27;45.57;;;28.80;;
3297;SDS011;1661;53.572;10.174;2022-08-19T06:12:55;40.60;;;27.83;;
3297;SDS011;1661;53.572;10.174;2022-08-19T06:15:21;44.23;;;30.90;;
3297;SDS011;1661;53.572;10.174;2022-08-19T06:17:50;69.90;;;34.77;;
3297;SDS011;1661;53.572;10.174;2022-08-19T06:20:17;50.70;;;33.00;;
3297;SDS011;1661;53.572;10.174;2022-08-19T06:22:45;44.93;;;28.00;;
3297;SDS011;1661;53.572;10.174;2022-08-19T06:25:14;37.60;;;26.30;;
3297;SDS011;1661;53.572;10.174;2022-08-19T06:27:42;51.40;;;32.10;;
3297;SDS011;1661;53.572;10.174;2022-08-19T06:30:10;35.00;;;26.40;;
3297;SDS011;1661;53.572;10.174;2022-08-19T06:32:37;67.10;;;33.97;;
3297;SDS011;1661;53.572;10.174;2022-08-19T06:35:04;56.97;;;36.90;;
3297;SDS011;1661;53.572;10.174;2022-08-19T06:37:32;62.57;;;34.30;;
3297;SDS011;1661;53.572;10.174;2022-08-19T06:39:59;46.17;;;28.20;;
3297;SDS011;1661;53.572;10.174;2022-08-19T06:42:27;51.07;;;33.20;;
3297;SDS011;1661;53.572;10.174;2022-08-19T06:44:54;39.67;;;25.73;;
3297;SDS011;1661;53.572;10.174;2022-08-19T06:47:21;43.67;;;31.00;;
3297;SDS011;1661;53.572;10.174;2022-08-19T06:49:48;41.87;;;26.80;;
3297;SDS011;1661;53.572;10.174;2022-08-19T06:52:15;38.57;;;28.03;;
3297;SDS011;1661;53.572;10.174;2022-08-19T06:54:42;31.77;;;24.83;;
3297;SDS011;1661;53.572;10.174;2022-08-19T06:57:08;54.77;;;31.70;;
3297;SDS011;1661;53.572;10.174;2022-08-19T06:59:41;46.53;;;30.33;;
3297;SDS011;1661;53.572;10.174;2022-08-19T07:02:08;41.50;;;26.67;;
3297;SDS011;1661;53.572;10.174;2022-08-19T07:04:35;37.37;;;25.57;;
3297;SDS011;1661;53.572;10.174;2022-08-19T07:07:04;42.83;;;25.13;;
3297;SDS011;1661;53.572;10.174;2022-08-19T07:09:35;43.00;;;28.70;;
3297;SDS011;1661;53.572;10.174;2022-08-19T07:12:04;41.53;;;26.53;;
3297;SDS011;1661;53.572;10.174;2022-08-19T07:14:33;37.70;;;26.13;;
3297;SDS011;1661;53.572;10.174;2022-08-19T07:17:04;51.60;;;30.47;;
3297;SDS011;1661;53.572;10.174;2022-08-19T07:19:32;39.90;;;27.00;;
3297;SDS011;1661;53.572;10.174;2022-08-19T07:22:03;36.60;;;24.13;;
3297;SDS011;1661;53.572;10.174;2022-08-19T07:24:31;32.20;;;22.60;;
3297;SDS011;1661;53.572;10.174;2022-08-19T07:26:59;37.67;;;23.63;;
3297;SDS011;1661;53.572;10.174;2022-08-19T07:29:28;25.50;;;19.27;;
3297;SDS011;1661;53.572;10.174;2022-08-19T07:31:58;38.47;;;25.90;;
3297;SDS011;1661;53.572;10.174;2022-08-19T07:34:27;30.07;;;23.63;;
3297;SDS011;1661;53.572;10.174;2022-08-19T07:36:55;42.53;;;29.10;;
3297;SDS011;1661;53.572;10.174;2022-08-19T07:39:23;50.17;;;32.80;;
3297;SDS011;1661;53.572;10.174;2022-08-19T07:41:52;34.60;;;25.00;;
3297;SDS011;1661;53.572;10.174;2022-08-19T07:44:19;49.57;;;30.30;;
3297;SDS011;1661;53.572;10.174;2022-08-19T07:46:51;41.07;;;28.73;;
3297;SDS011;1661;53.572;10.174;2022-08-19T07:49:21;57.50;;;32.83;;
3297;SDS011;1661;53.572;10.174;2022-08-19T07:51:51;44.67;;;28.17;;
3297;SDS011;1661;53.572;10.174;2022-08-19T07:54:20;35.90;;;25.00;;
3297;SDS011;1661;53.572;10.174;2022-08-19T07:56:48;38.77;;;26.73;;
3297;SDS011;1661;53.572;10.174;2022-08-19T07:59:15;43.23;;;25.40;;
3297;SDS011;1661;53.572;10.174;2022-08-19T08:01:43;54.57;;;32.33;;
3297;SDS011;1661;53.572;10.174;2022-08-19T08:04:10;43.43;;;26.90;;
3297;SDS011;1661;53.572;10.174;2022-08-19T08:06:56;34.57;;;27.50;;
3297;SDS011;1661;53.572;10.174;2022-08-19T08:09:41;39.10;;;27.97;;
3297;SDS011;1661;53.572;10.174;2022-08-19T08:12:11;47.83;;;33.03;;
3297;SDS011;1661;53.572;10.174;2022-08-19T08:14:40;47.73;;;31.00;;
3297;SDS011;1661;53.572;10.174;2022-08-19T08:17:09;41.20;;;25.97;;
3297;SDS011;1661;53.572;10.174;2022-08-19T08:19:37;39.23;;;25.30;;
3297;SDS011;1661;53.572;10.174;2022-08-19T08:22:08;41.13;;;26.83;;
3297;SDS011;1661;53.572;10.174;2022-08-19T08:24:56;49.70;;;31.00;;
3297;SDS011;1661;53.572;10.174;2022-08-19T08:27:24;32.10;;;21.57;;
3297;SDS011;1661;53.572;10.174;2022-08-19T08:29:54;48.93;;;32.50;;
3297;SDS011;1661;53.572;10.174;2022-08-19T08:32:20;60.87;;;35.77;;
3297;SDS011;1661;53.572;10.174;2022-08-19T08:34:47;51.53;;;34.60;;
3297;SDS011;1661;53.572;10.174;2022-08-19T08:37:16;37.70;;;27.53;;
3297;SDS011;1661;53.572;10.174;2022-08-19T08:39:42;56.60;;;31.70;;
3297;SDS011;1661;53.572;10.174;2022-08-19T08:42:11;43.87;;;29.50;;
3297;SDS011;1661;53.572;10.174;2022-08-19T08:44:43;50.97;;;37.63;;
3297;SDS011;1661;53.572;10.174;2022-08-19T08:47:18;59.30;;;34.77;;
3297;SDS011;1661;53.572;10.174;2022-08-19T08:49:47;31.73;;;25.00;;
3297;SDS011;1661;53.572;10.174;2022-08-19T08:52:20;47.40;;;32.30;;
3297;SDS011;1661;53.572;10.174;2022-08-19T08:54:50;47.80;;;31.90;;
3297;SDS011;1661;53.572;10.174;2022-08-19T08:57:19;46.07;;;31.97;;
3297;SDS011;1661;53.572;10.174;2022-08-19T08:59:51;33.50;;;23.30;;
3297;SDS011;1661;53.572;10.174;2022-08-19T09:02:22;43.40;;;28.30;;
3297;SDS011;1661;53.572;10.174;2022-08-19T09:04:49;37.70;;;27.57;;
3297;SDS011;1661;53.572;10.174;2022-08-19T09:07:22;48.67;;;30.83;;
3297;SDS011;1661;53.572;10.174;2022-08-19T09:10:10;58.90;;;34.70;;
3297;SDS011;1661;53.572;10.174;2022-08-19T09:12:45;41.10;;;26.23;;
3297;SDS011;1661;53.572;10.174;2022-08-19T09:15:22;52.17;;;33.00;;
3297;SDS011;1661;53.572;10.174;2022-08-19T09:17:54;54.77;;;32.53;;
3297;SDS011;1661;53.572;10.174;2022-08-19T09:20:24;45.07;;;31.67;;
3297;SDS011;1661;53.572;10.174;2022-08-19T09:22:52;45.83;;;31.63;;
3297;SDS011;1661;53.572;10.174;2022-08-19T09:25:20;51.07;;;35.33;;
3297;SDS011;1661;53.572;10.174;2022-08-19T09:27:49;56.13;;;34.37;;
3297;SDS011;1661;53.572;10.174;2022-08-19T09:30:19;40.40;;;26.47;;
3297;SDS011;1661;53.572;10.174;2022-08-19T09:32:47;38.03;;;23.70;;
3297;SDS011;1661;53.572;10.174;2022-08-19T09:35:17;44.63;;;32.60;;
3297;SDS011;1661;53.572;10.174;2022-08-19T09:37:47;51.20;;;33.67;;
3297;SDS011;1661;53.572;10.174;2022-08-19T09:40:15;42.27;;;28.97;;
3297;SDS011;1661;53.572;10.174;2022-08-19T09:42:43;50.07;;;34.00;;
3297;SDS011;1661;53.572;10.174;2022-08-19T09:45:11;50.33;;;32.40;;
3297;SDS011;1661;53.572;10.174;2022-08-19T09:47:38;53.10;;;31.37;;
3297;SDS011;1661;53.572;10.174;2022-08-19T09:50:06;45.53;;;29.87;;
3297;SDS011;1661;53.572;10.174;2022-08-19T09:52:35;42.10;;;27.33;;
3297;SDS011;1661;53.572;10.174;2022-08-19T09:55:02;46.20;;;27.63;;
3297;SDS011;1661;53.572;10.174;2022-08-19T09:57:30;56.57;;;30.93;;
3297;SDS011;1661;53.572;10.174;2022-08-19T09:59:57;51.97;;;31.87;;
3297;SDS011;1661;53.572;10.174;2022-08-19T10:02:24;40.70;;;30.30;;
3297;SDS011;1661;53.572;10.174;2022-08-19T10:04:51;41.80;;;26.60;;
3297;SDS011;1661;53.572;10.174;2022-08-19T10:07:36;37.70;;;27.27;;
3297;SDS011;1661;53.572;10.174;2022-08-19T10:10:04;36.13;;;27.10;;
3297;SDS011;1661;53.572;10.174;2022-08-19T10:12:33;50.00;;;34.50;;
3297;SDS011;1661;53.572;10.174;2022-08-19T10:15:01;48.20;;;30.90;;
3297;SDS011;1661;53.572;10.174;2022-08-19T10:17:29;39.70;;;26.57;;
3297;SDS011;1661;53.572;10.174;2022-08-19T10:19:58;44.93;;;30.10;;
3297;SDS011;1661;53.572;10.174;2022-08-19T10:22:25;36.73;;;28.07;;
3297;SDS011;1661;53.572;10.174;2022-08-19T10:24:52;43.40;;;28.87;;
3297;SDS011;1661;53.572;10.174;2022-08-19T10:27:19;39.13;;;26.10;;
3297;SDS011;1661;53.572;10.174;2022-08-19T10:29:47;37.13;;;27.23;;
3297;SDS011;1661;53.572;10.174;2022-08-19T10:32:14;41.77;;;29.23;;
3297;SDS011;1661;53.572;10.174;2022-08-19T10:34:40;45.03;;;29.57;;
3297;SDS011;1661;53.572;10.174;2022-08-19T10:37:07;28.60;;;21.47;;
3297;SDS011;1661;53.572;10.174;2022-08-19T10:39:35;32.37;;;23.20;;
3297;SDS011;1661;53.572;10.174;2022-08-19T10:42:03;41.17;;;26.47;;
3297;SDS011;1661;53.572;10.174;2022-08-19T10:44:31;32.57;;;22.23;;
3297;SDS011;1661;53.572;10.174;2022-08-19T10:47:02;30.53;;;21.70;;
3297;SDS011;1661;53.572;10.174;2022-08-19T10:49:29;41.40;;;24.63;;
3297;SDS011;1661;53.572;10.174;2022-08-19T10:51:57;33.30;;;23.87;;
3297;SDS011;1661;53.572;10.174;2022-08-19T10:54:41;43.70;;;27.37;;
3297;SDS011;1661;53.572;10.174;2022-08-19T10:57:25;28.60;;;21.43;;
3297;SDS011;1661;53.572;10.174;2022-08-19T10:59:56;33.10;;;24.00;;
3297;SDS011;1661;53.572;10.174;2022-08-19T11:02:24;32.47;;;22.00;;
3297;SDS011;1661;53.572;10.174;2022-08-19T11:04:51;34.13;;;21.27;;
3297;SDS011;1661;53.572;10.174;2022-08-19T11:07:17;40.17;;;27.00;;
3297;SDS011;1661;53.572;10.174;2022-08-19T11:09:44;39.93;;;24.60;;
3297;SDS011;1661;53.572;10.174;2022-08-19T11:12:12;27.33;;;20.90;;
3297;SDS011;1661;53.572;10.174;2022-08-19T11:14:40;36.40;;;26.73;;
3297;SDS011;1661;53.572;10.174;2022-08-19T11:17:06;30.97;;;23.10;;
3297;SDS011;1661;53.572;10.174;2022-08-19T11:19:34;38.40;;;27.57;;
3297;SDS011;1661;53.572;10.174;2022-08-19T11:22:01;39.10;;;24.53;;
3297;SDS011;1661;53.572;10.174;2022-08-19T11:24:29;29.77;;;22.90;;
3297;SDS011;1661;53.572;10.174;2022-08-19T11:27:00;39.70;;;25.77;;
3297;SDS011;1661;53.572;10.174;2022-08-19T11:29:29;38.23;;;25.20;;
3297;SDS011;1661;53.572;10.174;2022-08-19T11:31:57;36.70;;;26.37;;
3297;SDS011;1661;53.572;10.174;2022-08-19T11:34:26;42.57;;;27.57;;
3297;SDS011;1661;53.572;10.174;2022-08-19T11:36:57;33.10;;;20.90;;
3297;SDS011;1661;53.572;10.174;2022-08-19T11:39:25;35.57;;;22.03;;
3297;SDS011;1661;53.572;10.174;2022-08-19T11:41:53;38.27;;;24.23;;
3297;SDS011;1661;53.572;10.174;2022-08-19T11:44:20;32.93;;;26.20;;
3297;SDS011;1661;53.572;10.174;2022-08-19T11:46:47;42.63;;;27.37;;
3297;SDS011;1661;53.572;10.174;2022-08-19T11:49:14;34.80;;;20.90;;
3297;SDS011;1661;53.572;10.174;2022-08-19T11:51:43;36.80;;;25.30;;
3297;SDS011;1661;53.572;10.174;2022-08-19T11:54:12;36.07;;;24.00;;
3297;SDS011;1661;53.572;10.174;2022-08-19T11:56:40;31.40;;;22.10;;
3297;SDS011;1661;53.572;10.174;2022-08-19T11:59:08;28.43;;;20.63;;
3297;SDS011;1661;53.572;10.174;2022-08-19T12:01:35;28.40;;;22.40;;
3297;SDS011;1661;53.572;10.174;2022-08-19T12:04:02;32.87;;;23.10;;
3297;SDS011;1661;53.572;10.174;2022-08-19T12:06:31;39.70;;;27.33;;
3297;SDS011;1661;53.572;10.174;2022-08-19T12:09:00;25.43;;;20.33;;
3297;SDS011;1661;53.572;10.174;2022-08-19T12:11:31;36.17;;;26.90;;
3297;SDS011;1661;53.572;10.174;2022-08-19T12:13:58;30.30;;;21.93;;
3297;SDS011;1661;53.572;10.174;2022-08-19T12:16:27;26.50;;;22.70;;
3297;SDS011;1661;53.572;10.174;2022-08-19T12:18:55;28.43;;;21.80;;
3297;SDS011;1661;53.572;10.174;2022-08-19T12:21:25;22.03;;;18.90;;
3297;SDS011;1661;53.572;10.174;2022-08-19T12:23:54;28.60;;;22.33;;
3297;SDS011;1661;53.572;10.174;2022-08-19T12:26:23;23.43;;;18.87;;
3297;SDS011;1661;53.572;10.174;2022-08-19T12:28:52;30.30;;;23.70;;
3297;SDS011;1661;53.572;10.174;2022-08-19T12:31:19;31.20;;;26.10;;
3297;SDS011;1661;53.572;10.174;2022-08-19T12:33:46;32.23;;;24.60;;
3297;SDS011;1661;53.572;10.174;2022-08-19T12:36:14;37.90;;;29.30;;
3297;SDS011;1661;53.572;10.174;2022-08-19T12:38:42;33.43;;;29.70;;
3297;SDS011;1661;53.572;10.174;2022-08-19T12:41:10;33.90;;;25.40;;
3297;SDS011;1661;53.572;10.174;2022-08-19T12:43:38;30.10;;;23.97;;
3297;SDS011;1661;53.572;10.174;2022-08-19T12:46:07;27.50;;;22.80;;
3297;SDS011;1661;53.572;10.174;2022-08-19T12:48:35;27.30;;;20.80;;
3297;SDS011;1661;53.572;10.174;2022-08-19T12:51:05;25.13;;;21.33;;
3297;SDS011;1661;53.572;10.174;2022-08-19T12:53:33;23.10;;;19.93;;
3297;SDS011;1661;53.572;10.174;2022-08-19T12:56:00;23.57;;;19.73;;
3297;SDS011;1661;53.572;10.174;2022-08-19T12:58:27;21.90;;;17.87;;
3297;SDS011;1661;53.572;10.174;2022-08-19T13:00:55;25.03;;;20.70;;
3297;SDS011;1661;53.572;10.174;2022-08-19T13:03:23;24.53;;;20.90;;
3297;SDS011;1661;53.572;10.174;2022-08-19T13:05:54;23.83;;;21.33;;
3297;SDS011;1661;53.572;10.174;2022-08-19T13:08:21;21.30;;;16.53;;
3297;SDS011;1661;53.572;10.174;2022-08-19T13:10:48;18.97;;;16.17;;
3297;SDS011;1661;53.572;10.174;2022-08-19T13:13:16;18.07;;;16.17;;
3297;SDS011;1661;53.572;10.174;2022-08-19T13:15:43;18.33;;;16.43;;
3297;SDS011;1661;53.572;10.174;2022-08-19T13:18:10;17.80;;;14.07;;
3297;SDS011;1661;53.572;10.174;2022-08-19T13:20:40;18.23;;;16.07;;
3297;SDS011;1661;53.572;10.174;2022-08-19T13:23:07;16.60;;;14.90;;
3297;SDS011;1661;53.572;10.174;2022-08-19T13:25:34;24.93;;;16.07;;
3297;SDS011;1661;53.572;10.174;2022-08-19T13:28:02;18.70;;;16.67;;
3297;SDS011;1661;53.572;10.174;2022-08-19T13:30:29;21.33;;;15.27;;
3297;SDS011;1661;53.572;10.174;2022-08-19T13:33:13;26.83;;;19.17;;
3297;SDS011;1661;53.572;10.174;2022-08-19T13:35:44;23.47;;;19.03;;
3297;SDS011;1661;53.572;10.174;2022-08-19T13:38:13;19.83;;;16.30;;
3297;SDS011;1661;53.572;10.174;2022-08-19T13:40:41;18.77;;;15.50;;
3297;SDS011;1661;53.572;10.174;2022-08-19T13:43:08;26.13;;;22.10;;
3297;SDS011;1661;53.572;10.174;2022-08-19T13:45:35;28.47;;;25.30;;
3297;SDS011;1661;53.572;10.174;2022-08-19T13:48:06;28.10;;;23.70;;
3297;SDS011;1661;53.572;10.174;2022-08-19T13:50:34;30.10;;;26.70;;
3297;SDS011;1661;53.572;10.174;2022-08-19T13:53:05;26.73;;;22.43;;
3297;SDS011;1661;53.572;10.174;2022-08-19T13:55:32;25.90;;;23.10;;
3297;SDS011;1661;53.572;10.174;2022-08-19T13:57:59;26.90;;;24.37;;
3297;SDS011;1661;53.572;10.174;2022-08-19T14:00:28;24.40;;;20.47;;
3297;SDS011;1661;53.572;10.174;2022-08-19T14:02:56;24.53;;;18.87;;
3297;SDS011;1661;53.572;10.174;2022-08-19T14:05:25;19.70;;;17.50;;
3297;SDS011;1661;53.572;10.174;2022-08-19T14:07:53;21.57;;;18.13;;
3297;SDS011;1661;53.572;10.174;2022-08-19T14:10:22;26.37;;;20.37;;
3297;SDS011;1661;53.572;10.174;2022-08-19T14:12:51;20.67;;;14.27;;
3297;SDS011;1661;53.572;10.174;2022-08-19T14:15:20;22.93;;;20.13;;
3297;SDS011;1661;53.572;10.174;2022-08-19T14:17:48;16.20;;;14.50;;
3297;SDS011;1661;53.572;10.174;2022-08-19T14:20:16;19.67;;;17.50;;
3297;SDS011;1661;53.572;10.174;2022-08-19T14:22:43;20.43;;;16.70;;
3297;SDS011;1661;53.572;10.174;2022-08-19T14:25:14;20.57;;;18.47;;
3297;SDS011;1661;53.572;10.174;2022-08-19T14:27:43;14.37;;;13.03;;
3297;SDS011;1661;53.572;10.174;2022-08-19T14:30:13;15.50;;;14.07;;
3297;SDS011;1661;53.572;10.174;2022-08-19T14:32:41;19.90;;;16.50;;
3297;SDS011;1661;53.572;10.174;2022-08-19T14:35:09;21.43;;;19.43;;
3297;SDS011;1661;53.572;10.174;2022-08-19T14:37:37;16.43;;;14.93;;
3297;SDS011;1661;53.572;10.174;2022-08-19T14:40:05;20.00;;;18.00;;
3297;SDS011;1661;53.572;10.174;2022-08-19T14:42:33;24.73;;;22.30;;